Time;durP1;ratioP1;P1;durP2;ratioP2;P2;SDS_P1;SDS_P2;PMS_P1;PMS_P2;Temp;Humidity;BMP_temperature;BMP_pressure;BME280_temperature;BME280_humidity;BME280_pressure;Samples;Min_cycle;Max_cycle;Signal;HPM_P1;HPM_P2
2022/03/10 00:01:16;;;;;;;54.70;17.03;;;3.40;14.90;;;;;;5025735;28;20498;-62
2022/03/10 00:03:42;;;;;;;51.53;16.77;;;3.40;14.90;;;;;;5024933;28;20459;-60
2022/03/10 00:06:09;;;;;;;63.40;18.13;;;3.40;14.90;;;;;;5024616;28;20486;-61
2022/03/10 00:08:36;;;;;;;53.50;16.60;;;3.40;14.90;;;;;;5025052;28;20461;-62
2022/03/10 00:11:03;;;;;;;60.80;19.23;;;3.30;14.90;;;;;;5015145;28;20490;-59
2022/03/10 00:13:31;;;;;;;54.77;17.80;;;3.30;15.10;;;;;;5026769;28;20458;-62
2022/03/10 00:15:59;;;;;;;56.07;18.87;;;3.30;15.10;;;;;;5017350;28;20487;-60
2022/03/10 00:18:26;;;;;;;56.50;19.57;;;3.30;15.10;;;;;;5017307;28;20478;-61
2022/03/10 00:20:53;;;;;;;56.00;20.30;;;3.20;15.20;;;;;;5007267;28;20912;-62
2022/03/10 00:23:20;;;;;;;59.63;18.93;;;3.20;15.20;;;;;;5016767;28;20459;-59
2022/03/10 00:25:46;;;;;;;53.20;17.97;;;3.10;15.20;;;;;;5017839;28;20482;-60
2022/03/10 00:28:13;;;;;;;59.07;18.30;;;3.10;15.30;;;;;;5024565;28;20470;-61
2022/03/10 00:30:40;;;;;;;54.37;18.90;;;3.10;15.50;;;;;;5021015;28;20471;-60
2022/03/10 00:33:08;;;;;;;59.67;18.67;;;3.00;15.60;;;;;;5027360;28;20467;-60
2022/03/10 00:35:35;;;;;;;52.50;16.70;;;3.00;15.60;;;;;;5022384;28;20566;-60
2022/03/10 00:38:02;;;;;;;50.07;16.13;;;3.00;15.70;;;;;;5023222;28;20465;-61
2022/03/10 00:40:30;;;;;;;52.23;15.63;;;3.00;15.80;;;;;;5021086;28;20456;-60
2022/03/10 00:42:57;;;;;;;53.07;16.30;;;2.90;15.80;;;;;;5025983;28;20463;-60
2022/03/10 00:45:25;;;;;;;54.90;17.23;;;2.90;15.90;;;;;;5031820;28;20996;-60
2022/03/10 00:47:52;;;;;;;54.93;16.53;;;2.90;15.90;;;;;;5031480;28;20475;-60
2022/03/10 00:50:23;;;;;;;55.50;17.30;;;2.90;15.90;;;;;;5029649;28;20482;-59
2022/03/10 00:52:49;;;;;;;52.77;15.77;;;2.90;15.90;;;;;;5026716;28;20482;-61
2022/03/10 00:55:18;;;;;;;55.83;17.20;;;2.80;15.90;;;;;;5026673;28;20489;-61
2022/03/10 00:57:44;;;;;;;50.77;16.23;;;2.80;16.00;;;;;;5026923;28;20458;-61
2022/03/10 01:00:12;;;;;;;52.20;15.13;;;2.80;16.20;;;;;;5025206;28;20975;-61
2022/03/10 01:02:39;;;;;;;52.63;16.07;;;2.80;16.20;;;;;;5024580;28;20461;-62
2022/03/10 01:05:09;;;;;;;53.40;17.07;;;2.70;16.20;;;;;;5023572;28;20896;-60
2022/03/10 01:07:37;;;;;;;49.43;15.67;;;2.70;16.30;;;;;;5025915;28;20457;-61
2022/03/10 01:10:06;;;;;;;50.63;18.80;;;2.70;16.50;;;;;;5009025;28;20476;-60
2022/03/10 01:12:33;;;;;;;51.57;15.23;;;2.60;16.50;;;;;;5017323;28;20458;-60
2022/03/10 01:15:00;;;;;;;52.07;17.27;;;2.60;16.50;;;;;;5022626;28;20485;-62
2022/03/10 01:17:27;;;;;;;53.97;19.20;;;2.60;16.40;;;;;;5022155;28;20466;-61
2022/03/10 01:19:53;;;;;;;53.47;18.40;;;2.60;16.50;;;;;;5020769;28;20468;-62
2022/03/10 01:22:20;;;;;;;62.87;19.00;;;2.60;16.60;;;;;;5022576;28;20472;-60
2022/03/10 01:24:48;;;;;;;54.30;19.17;;;2.50;16.80;;;;;;5020007;28;20483;-61
2022/03/10 01:27:15;;;;;;;55.97;18.37;;;2.40;17.10;;;;;;5024565;28;20463;-61
2022/03/10 01:29:42;;;;;;;55.93;19.20;;;2.40;17.10;;;;;;5024929;28;20482;-60
2022/03/10 01:32:09;;;;;;;53.20;17.77;;;2.40;17.10;;;;;;5022079;28;21015;-60
2022/03/10 01:34:36;;;;;;;56.10;17.83;;;2.40;17.10;;;;;;5014740;28;20479;-58
2022/03/10 01:37:03;;;;;;;57.20;16.87;;;2.40;17.00;;;;;;5018020;28;20473;-60
2022/03/10 01:39:32;;;;;;;55.60;17.67;;;2.30;17.20;;;;;;5024013;28;20462;-62
2022/03/10 01:42:03;;;;;;;56.67;19.63;;;2.30;17.30;;;;;;5022077;28;20466;-60
2022/03/10 01:44:30;;;;;;;54.47;16.50;;;2.30;17.40;;;;;;5020492;28;20517;-60
2022/03/10 01:46:56;;;;;;;59.57;17.20;;;2.20;17.30;;;;;;5025484;28;20482;-60
2022/03/10 01:49:23;;;;;;;62.00;18.07;;;2.20;17.40;;;;;;5025395;28;20455;-60
2022/03/10 01:51:50;;;;;;;54.17;17.53;;;2.20;17.40;;;;;;5029309;28;20482;-60
2022/03/10 01:54:18;;;;;;;53.67;16.17;;;2.20;17.60;;;;;;5024403;28;20469;-61
2022/03/10 01:56:45;;;;;;;57.33;17.70;;;2.20;17.60;;;;;;5022604;28;20467;-60
2022/03/10 01:59:14;;;;;;;52.30;15.53;;;2.20;17.60;;;;;;5025772;28;20489;-61
2022/03/10 02:01:41;;;;;;;56.60;17.20;;;2.20;17.60;;;;;;5023644;28;20478;-63
2022/03/10 02:04:08;;;;;;;57.20;18.03;;;2.10;17.50;;;;;;5022255;28;20877;-60
2022/03/10 02:06:36;;;;;;;55.60;17.53;;;2.10;17.60;;;;;;5022743;28;20611;-61
2022/03/10 02:11:48;;;;;;;52.07;16.10;;;2.10;17.70;;;;;;5027742;28;20465;-61
2022/03/10 02:19:45;;;;;;;55.70;16.33;;;2.00;17.80;;;;;;5027135;28;20605;-61
2022/03/10 02:22:14;;;;;;;55.80;15.73;;;2.00;18.00;;;;;;5028853;28;20459;-61
2022/03/10 02:24:43;;;;;;;50.20;16.23;;;1.90;18.20;;;;;;5023784;28;20487;-60
2022/03/10 02:27:15;;;;;;;54.47;18.13;;;1.90;18.40;;;;;;5019374;28;20475;-60
2022/03/10 02:29:43;;;;;;;50.07;16.70;;;1.90;18.30;;;;;;5020174;28;20482;-59
2022/03/10 02:32:10;;;;;;;53.07;16.63;;;1.90;18.30;;;;;;5027834;28;20480;-61
2022/03/10 02:34:36;;;;;;;53.63;16.67;;;1.90;18.40;;;;;;5023772;28;21015;-60
2022/03/10 02:37:03;;;;;;;57.03;16.97;;;1.90;18.30;;;;;;5024767;28;20505;-61
2022/03/10 02:39:31;;;;;;;52.60;15.90;;;1.80;18.30;;;;;;5026520;28;20450;-61
2022/03/10 02:41:58;;;;;;;52.30;17.40;;;1.90;18.40;;;;;;5025153;28;20455;-61
2022/03/10 02:44:25;;;;;;;55.13;16.70;;;1.80;18.40;;;;;;5024174;28;20469;-59
2022/03/10 02:46:52;;;;;;;56.80;17.67;;;1.80;18.40;;;;;;5022563;28;20479;-62
2022/03/10 02:49:19;;;;;;;55.20;16.40;;;1.90;18.30;;;;;;5031698;28;20472;-62
2022/03/10 02:51:46;;;;;;;56.87;18.83;;;1.80;18.30;;;;;;5026880;28;20477;-61
2022/03/10 02:54:13;;;;;;;53.47;17.20;;;1.80;18.40;;;;;;5023348;28;20462;-60
2022/03/10 02:56:41;;;;;;;55.90;18.93;;;1.80;18.50;;;;;;5027220;28;20458;-60
2022/03/10 02:59:08;;;;;;;55.30;16.47;;;1.70;18.90;;;;;;5026979;28;20459;-61
2022/03/10 03:01:35;;;;;;;52.30;17.27;;;1.70;18.90;;;;;;5022913;28;20495;-61
2022/03/10 03:04:02;;;;;;;56.43;16.33;;;1.70;18.90;;;;;;5024996;28;20960;-60
2022/03/10 03:06:28;;;;;;;54.70;16.57;;;1.50;19.10;;;;;;5050862;22;20837;-65
2022/03/10 03:08:55;;;;;;;58.80;18.73;;;1.50;19.20;;;;;;5028592;28;20842;-66
2022/03/10 03:11:22;;;;;;;52.87;16.77;;;1.50;19.20;;;;;;5028209;28;20478;-65
2022/03/10 03:13:50;;;;;;;57.73;18.97;;;1.50;19.30;;;;;;5027529;28;20995;-65
2022/03/10 03:16:17;;;;;;;54.77;16.80;;;1.50;19.10;;;;;;5029019;28;20513;-65
2022/03/10 03:18:44;;;;;;;54.57;18.13;;;1.50;19.30;;;;;;5028322;28;20994;-66
2022/03/10 03:21:11;;;;;;;62.73;16.57;;;1.40;19.30;;;;;;5027024;28;20482;-66
2022/03/10 03:23:38;;;;;;;53.37;16.23;;;1.40;19.40;;;;;;5027169;28;20462;-66
2022/03/10 03:26:05;;;;;;;53.43;18.23;;;1.40;19.30;;;;;;5029032;28;20461;-65
2022/03/10 03:28:31;;;;;;;58.70;20.03;;;1.40;19.40;;;;;;5029164;28;20462;-64
2022/03/10 03:31:00;;;;;;;59.33;20.67;;;1.40;19.70;;;;;;5030999;28;20548;-65
2022/03/10 03:33:27;;;;;;;60.77;19.53;;;1.40;20.30;;;;;;5029211;28;20541;-65
2022/03/10 03:35:54;;;;;;;56.20;18.43;;;1.50;20.60;;;;;;5027784;28;20463;-65
2022/03/10 03:38:21;;;;;;;54.80;16.43;;;1.50;20.60;;;;;;5031148;28;20463;-65
2022/03/10 03:40:48;;;;;;;54.20;16.13;;;1.50;20.70;;;;;;5031145;28;20483;-65
2022/03/10 03:43:15;;;;;;;53.70;16.53;;;1.50;20.60;;;;;;5029501;28;20459;-64
2022/03/10 03:45:42;;;;;;;53.90;16.00;;;1.60;20.90;;;;;;5029363;28;20458;-64
2022/03/10 03:48:10;;;;;;;54.60;16.67;;;1.60;20.70;;;;;;5030683;28;20454;-67
2022/03/10 03:50:37;;;;;;;57.30;17.57;;;1.60;20.20;;;;;;5029305;28;21005;-67
2022/03/10 03:53:03;;;;;;;56.37;17.90;;;1.60;20.00;;;;;;5029278;28;21177;-64
2022/03/10 03:55:30;;;;;;;56.87;17.27;;;1.60;19.90;;;;;;5030087;28;20836;-64
2022/03/10 03:57:57;;;;;;;61.57;17.90;;;1.60;19.70;;;;;;5029797;28;20469;-64
2022/03/10 04:00:24;;;;;;;52.03;15.73;;;1.60;19.70;;;;;;5029159;28;20479;-64
2022/03/10 04:02:51;;;;;;;55.50;16.97;;;1.50;19.70;;;;;;5029566;28;20461;-64
2022/03/10 04:05:19;;;;;;;57.27;17.47;;;1.50;19.60;;;;;;5027438;28;20467;-65
2022/03/10 04:07:46;;;;;;;57.10;18.80;;;1.50;19.70;;;;;;5027693;28;20455;-65
2022/03/10 04:10:13;;;;;;;55.47;18.30;;;1.40;19.50;;;;;;5030070;28;20884;-65
2022/03/10 04:12:39;;;;;;;57.17;18.27;;;1.40;19.80;;;;;;5029775;28;20999;-64
2022/03/10 04:15:07;;;;;;;58.77;16.77;;;1.30;19.80;;;;;;5028347;28;20466;-64
2022/03/10 04:17:34;;;;;;;56.47;17.63;;;1.30;19.80;;;;;;5030050;28;20462;-67
2022/03/10 04:20:00;;;;;;;57.07;18.77;;;1.30;19.80;;;;;;5029104;28;20506;-64
2022/03/10 04:22:28;;;;;;;58.47;19.40;;;1.30;19.90;;;;;;5028052;28;20486;-65
2022/03/10 04:24:55;;;;;;;56.53;18.57;;;1.20;20.00;;;;;;5028631;28;20459;-64
2022/03/10 04:27:22;;;;;;;59.70;18.50;;;1.20;20.00;;;;;;5025311;28;20466;-65
2022/03/10 04:29:49;;;;;;;59.70;19.87;;;1.20;20.10;;;;;;5025157;28;20482;-65
2022/03/10 04:32:15;;;;;;;61.07;19.63;;;1.10;20.10;;;;;;5025494;28;20475;-66
2022/03/10 04:34:42;;;;;;;61.47;20.23;;;1.10;20.30;;;;;;5028155;28;20463;-65
2022/03/10 04:37:09;;;;;;;63.00;20.27;;;1.10;20.20;;;;;;5029243;28;20458;-66
2022/03/10 04:39:37;;;;;;;64.13;21.27;;;1.00;20.40;;;;;;5027386;28;20463;-64
2022/03/10 04:42:04;;;;;;;70.03;18.17;;;1.00;20.40;;;;;;5021655;28;20448;-65
2022/03/10 04:44:31;;;;;;;59.50;18.80;;;1.00;20.70;;;;;;5021387;28;20466;-65
2022/03/10 04:46:58;;;;;;;61.20;19.77;;;0.90;20.80;;;;;;5027300;28;20494;-66
2022/03/10 04:49:25;;;;;;;64.00;18.60;;;0.90;20.90;;;;;;5029675;28;21019;-65
2022/03/10 04:51:51;;;;;;;56.43;17.20;;;0.90;21.00;;;;;;5027657;28;20478;-65
2022/03/10 04:54:18;;;;;;;54.83;17.20;;;0.90;21.20;;;;;;5027068;28;20470;-65
2022/03/10 04:56:47;;;;;;;51.93;17.17;;;0.80;21.00;;;;;;5026035;28;20459;-65
2022/03/10 04:59:14;;;;;;;53.83;15.87;;;0.80;20.90;;;;;;5025165;28;20467;-65
2022/03/10 05:01:41;;;;;;;63.57;18.27;;;0.80;21.00;;;;;;5027911;28;20498;-65
2022/03/10 05:04:08;;;;;;;53.27;15.97;;;0.80;21.00;;;;;;5026732;28;20467;-65
2022/03/10 05:06:35;;;;;;;56.73;17.87;;;0.80;20.90;;;;;;5027700;28;20477;-66
2022/03/10 05:09:03;;;;;;;56.13;17.00;;;0.80;21.10;;;;;;5023927;28;20545;-65
2022/03/10 05:11:29;;;;;;;57.17;19.77;;;0.80;21.10;;;;;;5028753;28;20490;-64
2022/03/10 05:13:58;;;;;;;55.37;17.83;;;0.80;21.20;;;;;;5026350;28;20518;-64
2022/03/10 05:16:24;;;;;;;56.23;18.90;;;0.70;21.20;;;;;;5028076;28;20485;-64
2022/03/10 05:18:51;;;;;;;54.87;18.37;;;0.70;21.60;;;;;;5025466;28;20455;-66
2022/03/10 05:21:18;;;;;;;56.93;18.70;;;0.70;21.80;;;;;;5025051;28;20493;-65
2022/03/10 05:23:45;;;;;;;56.50;19.20;;;0.60;21.70;;;;;;5027735;28;20466;-65
2022/03/10 05:26:11;;;;;;;58.13;18.50;;;0.70;21.60;;;;;;5028261;28;20492;-65
2022/03/10 05:28:38;;;;;;;58.33;17.60;;;0.60;21.60;;;;;;5026588;28;20856;-65
2022/03/10 05:31:06;;;;;;;58.73;20.27;;;0.60;21.70;;;;;;5025101;28;20471;-65
2022/03/10 05:33:33;;;;;;;54.43;17.23;;;0.60;21.90;;;;;;5028604;28;20548;-66
2022/03/10 05:36:00;;;;;;;59.33;18.40;;;0.60;21.70;;;;;;5026602;28;20497;-65
2022/03/10 05:38:26;;;;;;;59.87;17.00;;;0.60;21.80;;;;;;5027492;28;20471;-65
2022/03/10 05:40:53;;;;;;;59.80;18.37;;;0.50;21.70;;;;;;5027321;28;20505;-67
2022/03/10 05:43:20;;;;;;;60.73;17.03;;;0.50;22.10;;;;;;5027738;28;20451;-63
2022/03/10 05:45:47;;;;;;;62.73;19.80;;;0.40;22.20;;;;;;5027788;28;20892;-64
2022/03/10 05:51:37;;;;;;;56.07;17.23;;;0.30;22.40;;;;;;5026940;28;20505;-67
2022/03/10 05:54:04;;;;;;;61.87;18.40;;;0.30;22.70;;;;;;5027165;28;20990;-65
2022/03/10 05:56:31;;;;;;;58.80;19.27;;;0.40;22.90;;;;;;5016604;28;20464;-63
2022/03/10 05:58:58;;;;;;;58.03;17.57;;;0.50;23.00;;;;;;5022258;28;20475;-64
2022/03/10 06:01:24;;;;;;;54.87;16.83;;;0.60;23.20;;;;;;5018027;28;21004;-63
2022/03/10 06:03:51;;;;;;;56.50;19.53;;;0.80;23.30;;;;;;5024055;28;21020;-65
2022/03/10 06:06:18;;;;;;;56.10;16.90;;;1.00;23.50;;;;;;5027934;28;20463;-65
2022/03/10 06:08:46;;;;;;;52.80;16.97;;;1.30;23.10;;;;;;5027103;28;20463;-64
2022/03/10 06:11:14;;;;;;;56.57;17.83;;;1.60;22.90;;;;;;5027246;28;20474;-64
2022/03/10 06:13:41;;;;;;;53.27;17.20;;;1.90;22.50;;;;;;5027393;28;20462;-65
2022/03/10 06:16:07;;;;;;;52.60;16.70;;;2.20;21.90;;;;;;5026739;28;21214;-64
2022/03/10 06:18:34;;;;;;;59.40;17.07;;;2.40;21.30;;;;;;5026797;28;20462;-64
2022/03/10 06:21:01;;;;;;;56.10;16.50;;;3.00;19.70;;;;;;5025954;28;20573;-65
2022/03/10 06:23:28;;;;;;;57.07;16.37;;;3.70;18.50;;;;;;5027708;28;20789;-65
2022/03/10 06:25:57;;;;;;;52.80;16.23;;;4.50;17.10;;;;;;5027547;28;20548;-65
2022/03/10 06:28:23;;;;;;;49.47;15.13;;;5.50;15.70;;;;;;5027725;28;20463;-65
2022/03/10 06:30:51;;;;;;;52.47;15.67;;;6.50;13.80;;;;;;5025295;28;20462;-66
2022/03/10 06:33:17;;;;;;;49.17;15.60;;;7.50;12.20;;;;;;5027027;28;21078;-65
2022/03/10 06:39:06;;;;;;;50.63;15.50;;;8.70;9.20;;;;;;5027082;28;20914;-65
2022/03/10 06:41:34;;;;;;;49.47;15.97;;;9.10;8.30;;;;;;5026425;28;20479;-66
2022/03/10 06:44:01;;;;;;;52.57;18.10;;;9.20;8.00;;;;;;5026320;28;20462;-65
2022/03/10 06:46:28;;;;;;;52.30;18.47;;;9.20;7.70;;;;;;5026201;28;20464;-66
2022/03/10 06:48:55;;;;;;;53.67;17.50;;;9.20;7.70;;;;;;5025737;28;20470;-67
2022/03/10 06:51:22;;;;;;;55.67;19.87;;;9.20;8.20;;;;;;5025722;28;20533;-65
2022/03/10 06:53:49;;;;;;;48.77;17.80;;;9.10;7.80;;;;;;5026327;28;20489;-65
2022/03/10 06:56:16;;;;;;;53.50;17.00;;;9.10;8.20;;;;;;5028265;28;20454;-65
2022/03/10 06:58:44;;;;;;;57.77;21.67;;;9.20;8.00;;;;;;5030847;28;20455;-67
2022/03/10 07:01:11;;;;;;;55.13;20.50;;;9.30;8.20;;;;;;5024153;28;20487;-65
2022/03/10 07:03:38;;;;;;;50.50;17.03;;;9.50;7.90;;;;;;5011150;28;20462;-66
2022/03/10 07:06:04;;;;;;;47.60;15.87;;;9.70;7.80;;;;;;5011159;28;20470;-67
2022/03/10 07:08:32;;;;;;;51.50;17.17;;;9.90;7.80;;;;;;5011380;28;20459;-64
2022/03/10 07:10:58;;;;;;;63.10;26.37;;;10.10;7.50;;;;;;5011933;28;21049;-66
2022/03/10 07:13:25;;;;;;;61.27;24.50;;;10.50;7.20;;;;;;5031340;28;20509;-66
2022/03/10 07:15:53;;;;;;;61.00;23.30;;;11.20;6.10;;;;;;5030954;28;20469;-65
2022/03/10 07:18:20;;;;;;;56.23;21.03;;;12.00;5.00;;;;;;5031466;28;20872;-65
2022/03/10 07:20:48;;;;;;;51.07;19.30;;;12.40;4.00;;;;;;5030771;28;20516;-66
2022/03/10 07:23:14;;;;;;;49.90;19.30;;;12.70;3.40;;;;;;5029956;28;20466;-66
2022/03/10 07:25:43;;;;;;;45.33;16.60;;;13.00;2.90;;;;;;5031194;28;20463;-66
2022/03/10 07:28:09;;;;;;;46.83;17.03;;;13.30;2.50;;;;;;5030858;28;20470;-65
2022/03/10 07:30:37;;;;;;;46.90;18.40;;;13.90;1.70;;;;;;5031473;28;20492;-65
2022/03/10 07:33:26;;;;;;;49.90;18.20;;;15.00;1.00;;;;;;5028859;28;20483;-65
2022/03/10 07:35:53;;;;;;;48.10;19.13;;;16.50;1.00;;;;;;5030872;28;20478;-66
2022/03/10 07:38:20;;;;;;;51.80;20.10;;;17.90;1.00;;;;;;5030715;28;20455;-66
2022/03/10 07:40:47;;;;;;;47.43;18.80;;;19.30;1.00;;;;;;5030482;28;20479;-67
2022/03/10 07:43:14;;;;;;;45.70;17.77;;;20.60;1.00;;;;;;5029003;28;20462;-65
2022/03/10 07:45:41;;;;;;;44.87;16.83;;;22.00;1.00;;;;;;5030788;28;20466;-66
2022/03/10 07:48:08;;;;;;;44.43;18.23;;;23.20;1.00;;;;;;5030475;28;20455;-66
2022/03/10 07:50:36;;;;;;;45.53;18.10;;;24.30;1.00;;;;;;5030376;28;20479;-66
2022/03/10 07:53:04;;;;;;;48.27;18.77;;;25.30;1.00;;;;;;5028956;28;20490;-65
2022/03/10 07:55:30;;;;;;;46.63;17.90;;;26.40;1.00;;;;;;5031189;28;20853;-66
2022/03/10 07:57:57;;;;;;;42.40;19.37;;;27.30;1.00;;;;;;5030871;28;20463;-66
2022/03/10 08:00:24;;;;;;;45.80;19.90;;;28.00;1.00;;;;;;5029192;28;20621;-68
2022/03/10 08:02:51;;;;;;;42.43;17.90;;;28.60;1.00;;;;;;5029880;28;20452;-65
2022/03/10 08:05:18;;;;;;;40.20;17.37;;;29.40;1.00;;;;;;5029022;28;20463;-65
2022/03/10 08:07:46;;;;;;;39.30;15.40;;;30.20;1.00;;;;;;5029837;28;20954;-67
2022/03/10 08:10:13;;;;;;;44.67;18.53;;;31.00;1.00;;;;;;5029969;28;20482;-66
2022/03/10 08:12:40;;;;;;;39.77;17.50;;;31.50;1.00;;;;;;5029513;28;21002;-66
2022/03/10 08:15:08;;;;;;;39.70;17.10;;;32.00;1.00;;;;;;5027296;28;20572;-67
2022/03/10 08:17:36;;;;;;;39.00;16.60;;;32.30;1.00;;;;;;5029796;28;20465;-67
2022/03/10 08:20:03;;;;;;;41.33;18.67;;;32.90;1.00;;;;;;5030224;28;20482;-65
2022/03/10 08:22:30;;;;;;;39.10;16.70;;;33.20;1.00;;;;;;5029342;28;20447;-67
2022/03/10 08:24:58;;;;;;;37.90;16.07;;;33.70;1.00;;;;;;5029541;28;20513;-66
2022/03/10 08:27:25;;;;;;;36.30;16.00;;;34.20;1.00;;;;;;5028982;28;20470;-66
2022/03/10 08:29:52;;;;;;;42.30;17.77;;;34.50;1.00;;;;;;5029123;28;20494;-67
2022/03/10 08:32:21;;;;;;;38.40;17.37;;;34.90;1.00;;;;;;5028390;28;21042;-66
2022/03/10 08:34:47;;;;;;;38.70;16.50;;;35.10;1.00;;;;;;5029934;28;20517;-66
2022/03/10 08:37:14;;;;;;;37.57;16.90;;;35.50;1.00;;;;;;5027039;28;20847;-66
2022/03/10 08:39:41;;;;;;;36.77;16.33;;;36.10;1.00;;;;;;5029096;28;20466;-66
2022/03/10 08:42:10;;;;;;;39.40;16.87;;;36.60;1.00;;;;;;5028895;28;20462;-67
2022/03/10 08:44:37;;;;;;;36.10;15.80;;;37.10;1.00;;;;;;5029481;28;20454;-68
2022/03/10 08:47:05;;;;;;;38.40;16.47;;;37.50;1.00;;;;;;5027800;28;20550;-67
2022/03/10 08:49:31;;;;;;;34.63;15.00;;;37.80;1.00;;;;;;5028634;28;20451;-67
2022/03/10 08:51:58;;;;;;;34.67;15.60;;;37.40;1.00;;;;;;5028564;28;20459;-68
2022/03/10 08:54:25;;;;;;;36.27;15.90;;;37.10;1.00;;;;;;5028936;28;20459;-68
2022/03/10 08:56:52;;;;;;;35.20;15.10;;;37.60;1.00;;;;;;5027749;28;20490;-68
2022/03/10 08:59:20;;;;;;;35.87;14.60;;;38.00;1.00;;;;;;5028917;28;20478;-67
2022/03/10 09:01:46;;;;;;;34.70;14.17;;;38.20;1.00;;;;;;5027861;28;20851;-67
2022/03/10 09:04:13;;;;;;;37.43;15.20;;;38.60;1.00;;;;;;5028541;28;20820;-67
2022/03/10 09:06:40;;;;;;;33.60;13.30;;;39.10;1.00;;;;;;5028646;28;20486;-67
2022/03/10 09:09:07;;;;;;;34.83;14.90;;;39.60;1.00;;;;;;5028347;28;20473;-68
2022/03/10 09:11:34;;;;;;;34.33;15.03;;;40.00;1.00;;;;;;5028956;28;20487;-67
2022/03/10 09:14:00;;;;;;;32.90;14.77;;;40.40;1.00;;;;;;5028160;28;20486;-68
2022/03/10 09:16:29;;;;;;;35.40;14.43;;;40.80;1.00;;;;;;5028734;28;21242;-66
2022/03/10 09:18:56;;;;;;;33.00;13.80;;;41.10;1.00;;;;;;5027908;28;20517;-66
2022/03/10 09:21:24;;;;;;;33.47;14.63;;;41.00;1.00;;;;;;5027964;28;20853;-67
2022/03/10 09:23:51;;;;;;;32.90;13.17;;;41.00;1.00;;;;;;5028936;28;20459;-66
2022/03/10 09:26:17;;;;;;;33.80;12.97;;;41.40;1.00;;;;;;5028545;28;20459;-68
2022/03/10 09:28:44;;;;;;;31.93;13.33;;;41.80;1.00;;;;;;5026732;28;20467;-67
2022/03/10 09:31:12;;;;;;;31.90;14.13;;;42.20;1.00;;;;;;5027987;28;20504;-67
2022/03/10 09:33:41;;;;;;;31.47;13.57;;;42.10;1.00;;;;;;5028516;28;20518;-67
2022/03/10 09:36:09;;;;;;;30.67;12.50;;;42.40;1.00;;;;;;5028676;28;20517;-67
2022/03/10 09:38:35;;;;;;;31.40;12.23;;;42.70;1.00;;;;;;5026291;28;20455;-67
2022/03/10 09:41:02;;;;;;;31.63;12.53;;;42.90;1.00;;;;;;5028016;28;20478;-67
2022/03/10 09:43:31;;;;;;;30.00;12.23;;;43.20;1.00;;;;;;5027687;28;20459;-68
2022/03/10 09:45:59;;;;;;;28.87;12.33;;;42.80;1.00;;;;;;5028282;28;20494;-67
2022/03/10 09:48:26;;;;;;;29.23;11.77;;;42.60;1.00;;;;;;5027052;28;20512;-66
2022/03/10 09:50:55;;;;;;;30.90;11.57;;;42.60;1.00;;;;;;5008009;28;20483;-67
2022/03/10 09:53:21;;;;;;;31.10;12.37;;;42.60;1.00;;;;;;5008651;28;20479;-69
2022/03/10 09:55:49;;;;;;;29.73;12.17;;;42.70;1.00;;;;;;5008466;28;20459;-68
2022/03/10 09:58:16;;;;;;;29.60;10.97;;;42.80;1.00;;;;;;5008190;28;20459;-67
2022/03/10 10:00:42;;;;;;;31.20;11.43;;;42.80;1.00;;;;;;5023156;28;20462;-68
2022/03/10 10:03:09;;;;;;;29.67;12.40;;;42.90;1.00;;;;;;5028243;28;20948;-69
2022/03/10 10:05:40;;;;;;;30.70;11.10;;;43.30;1.00;;;;;;5028199;28;20482;-67
2022/03/10 10:08:11;;;;;;;28.37;10.47;;;43.60;1.00;;;;;;5028168;28;20454;-67
2022/03/10 10:10:40;;;;;;;26.97;9.80;;;43.40;1.00;;;;;;5026892;28;20829;-67
2022/03/10 10:13:07;;;;;;;29.40;10.53;;;43.30;1.00;;;;;;5028200;28;20864;-67
2022/03/10 10:15:35;;;;;;;29.37;10.10;;;43.00;1.00;;;;;;5027982;28;20881;-67
2022/03/10 10:18:02;;;;;;;27.37;8.70;;;43.20;1.00;;;;;;5028529;28;20467;-67
2022/03/10 10:23:54;;;;;;;27.07;8.27;;;42.80;1.00;;;;;;5028124;28;20403;-68
2022/03/10 10:26:26;;;;;;;26.87;8.47;;;41.90;1.00;;;;;;5028088;28;20462;-69
2022/03/10 10:28:54;;;;;;;30.70;9.20;;;41.10;1.00;;;;;;5028492;28;20530;-69
2022/03/10 10:31:21;;;;;;;28.07;8.37;;;40.40;1.00;;;;;;5027994;28;20475;-69
2022/03/10 10:33:58;;;;;;;29.13;8.70;;;40.20;1.00;;;;;;5031536;28;20484;-70
2022/03/10 10:36:26;;;;;;;31.13;9.57;;;39.70;1.00;;;;;;5031960;28;20469;-70
2022/03/10 10:38:56;;;;;;;29.43;7.67;;;39.00;1.00;;;;;;5031198;28;20467;-69
2022/03/10 10:41:25;;;;;;;28.30;7.50;;;38.80;1.00;;;;;;5031933;28;20486;-70
2022/03/10 10:43:54;;;;;;;28.27;7.70;;;39.00;1.00;;;;;;5031523;28;20542;-70
2022/03/10 10:46:23;;;;;;;27.83;7.10;;;38.60;1.00;;;;;;5032213;28;20478;-69
2022/03/10 10:48:50;;;;;;;28.90;7.30;;;38.20;1.00;;;;;;5030319;28;20489;-69
2022/03/10 10:51:27;;;;;;;28.50;7.13;;;37.90;1.00;;;;;;5031511;28;20482;-69
2022/03/10 10:53:56;;;;;;;32.30;7.63;;;37.20;1.00;;;;;;5031587;28;20543;-68
2022/03/10 10:56:23;;;;;;;29.10;7.10;;;35.90;1.00;;;;;;5032094;28;20458;-69
2022/03/10 10:58:52;;;;;;;29.73;7.60;;;35.10;1.00;;;;;;5031597;28;20838;-69
2022/03/10 11:01:36;;;;;;;30.17;7.47;;;34.80;1.00;;;;;;5030303;28;20471;-69
2022/03/10 11:04:05;;;;;;;30.17;7.10;;;34.70;1.00;;;;;;5030853;28;20550;-68
2022/03/10 11:09:55;;;;;;;29.80;7.00;;;34.00;1.00;;;;;;5029534;28;20479;-69
2022/03/10 11:12:22;;;;;;;29.70;7.10;;;34.10;1.00;;;;;;5030965;28;20469;-69
2022/03/10 11:14:49;;;;;;;32.90;8.07;;;33.50;1.00;;;;;;5031208;28;20482;-68
2022/03/10 11:17:18;;;;;;;29.50;5.83;;;32.70;1.00;;;;;;5031062;28;20455;-67
2022/03/10 11:19:48;;;;;;;29.57;6.87;;;32.40;1.00;;;;;;5030397;28;20479;-68
2022/03/10 11:22:31;;;;;;;30.67;6.30;;;32.40;1.00;;;;;;5030323;28;20967;-69
2022/03/10 11:25:18;;;;;;;30.73;6.47;;;32.70;1.00;;;;;;5030999;28;20439;-68
2022/03/10 11:27:51;;;;;;;28.80;6.43;;;33.10;1.00;;;;;;5030978;28;20525;-69
2022/03/10 11:30:18;;;;;;;32.03;7.90;;;33.10;1.00;;;;;;5029205;28;20574;-69
2022/03/10 11:33:00;;;;;;;30.13;6.40;;;32.40;1.00;;;;;;5030877;28;20485;-69
2022/03/10 11:35:31;;;;;;;31.57;6.40;;;31.40;1.00;;;;;;5031247;28;20467;-69
2022/03/10 11:37:58;;;;;;;29.97;6.60;;;30.60;1.00;;;;;;5031128;28;20926;-68
2022/03/10 11:40:51;;;;;;;30.80;6.47;;;30.10;1.00;;;;;;5030340;28;21029;-68
2022/03/10 11:43:28;;;;;;;31.23;6.60;;;28.80;1.00;;;;;;5010401;28;20531;-69
2022/03/10 11:46:17;;;;;;;32.03;6.40;;;27.00;1.00;;;;;;5010574;28;20956;-69
2022/03/10 11:48:44;;;;;;;32.23;6.90;;;25.80;1.00;;;;;;5010586;28;20909;-68
2022/03/10 11:51:17;;;;;;;32.00;7.00;;;24.90;1.00;;;;;;5011003;28;20480;-69
2022/03/10 11:54:06;;;;;;;31.20;6.17;;;24.50;1.00;;;;;;5029679;28;20987;-71
2022/03/10 11:57:06;;;;;;;31.47;6.17;;;24.40;1.00;;;;;;5030783;28;20882;-69
2022/03/10 11:59:47;;;;;;;31.40;6.27;;;24.40;1.00;;;;;;5031268;28;20455;-69
2022/03/10 12:02:43;;;;;;;32.10;6.07;;;24.30;1.00;;;;;;5028180;28;20554;-70
2022/03/10 12:05:10;;;;;;;34.17;7.47;;;24.30;1.00;;;;;;5031041;28;20444;-70
2022/03/10 12:07:42;;;;;;;32.77;6.67;;;23.70;1.00;;;;;;5030084;28;20466;-70
2022/03/10 12:10:11;;;;;;;32.67;7.13;;;23.10;1.00;;;;;;5030270;28;20485;-70
2022/03/10 12:12:40;;;;;;;32.97;6.83;;;22.50;1.00;;;;;;5028515;28;20863;-67
2022/03/10 12:15:51;;;;;;;32.90;6.33;;;22.20;1.00;;;;;;5032004;28;20487;-71
2022/03/10 12:18:24;;;;;;;31.03;6.17;;;21.80;1.00;;;;;;5030472;28;20459;-70
2022/03/10 12:20:56;;;;;;;31.57;6.80;;;21.80;1.00;;;;;;5029563;28;20479;-70
2022/03/10 12:23:25;;;;;;;31.97;5.97;;;22.00;1.00;;;;;;5028761;28;20544;-70
2022/03/10 12:25:54;;;;;;;31.30;6.00;;;22.30;1.00;;;;;;5030229;28;20467;-70
2022/03/10 12:28:26;;;;;;;32.80;5.87;;;21.70;1.00;;;;;;5029771;28;20498;-70
2022/03/10 12:31:05;;;;;;;33.00;6.17;;;21.00;1.00;;;;;;5027601;28;20968;-71
2022/03/10 12:33:34;;;;;;;32.63;6.27;;;20.10;1.00;;;;;;5029388;28;20486;-73
2022/03/10 12:36:02;;;;;;;32.40;6.00;;;19.60;1.00;;;;;;5030026;28;20455;-72
2022/03/10 12:38:40;;;;;;;34.20;7.27;;;19.20;1.00;;;;;;5029457;28;20848;-72
2022/03/10 12:41:07;;;;;;;34.83;7.17;;;18.80;1.00;;;;;;5028567;28;20831;-71
2022/03/10 12:43:35;;;;;;;33.60;7.07;;;18.40;1.00;;;;;;5029128;28;20951;-71
2022/03/10 12:46:03;;;;;;;35.40;6.70;;;18.00;1.00;;;;;;5029727;28;20944;-72
2022/03/10 12:48:46;;;;;;;35.77;7.33;;;17.60;1.00;;;;;;5029360;28;20466;-72
2022/03/10 12:51:23;;;;;;;32.23;5.70;;;17.30;1.00;;;;;;5028671;28;20933;-70
2022/03/10 12:53:51;;;;;;;33.07;6.43;;;17.00;1.00;;;;;;5028531;28;20478;-73
2022/03/10 12:56:18;;;;;;;34.00;6.30;;;16.70;1.00;;;;;;5029525;28;20474;-73
2022/03/10 12:58:47;;;;;;;35.10;6.70;;;16.40;1.00;;;;;;5027631;28;20839;-71
2022/03/10 13:01:14;;;;;;;35.00;6.70;;;16.10;1.00;;;;;;5022374;28;20483;-73
2022/03/10 13:03:48;;;;;;;33.97;5.87;;;15.90;1.00;;;;;;5028755;28;20455;-71
2022/03/10 13:06:16;;;;;;;34.13;6.03;;;15.70;1.00;;;;;;5013948;28;20814;-70